Time;durP1;ratioP1;P1;durP2;ratioP2;P2;SDS_P1;SDS_P2;PMS_P1;PMS_P2;Temp;Humidity;BMP_temperature;BMP_pressure;BME280_temperature;BME280_humidity;BME280_pressure;Samples;Min_cycle;Max_cycle;Signal;HPM_P1;HPM_P2
2023/09/26 00:00:20;;;;;;;;;;;;;;;20.77;69.24;95409.28;5115250;28;1149;-57
2023/09/26 00:02:47;;;;;;;;;;;;;;;20.83;68.87;95403.84;5115342;28;1028;-57
2023/09/26 00:05:13;;;;;;;;;;;;;;;20.83;67.35;95389.38;5115479;28;1035;-57
2023/09/26 00:07:40;;;;;;;;;;;;;;;21.01;66.20;95403.06;5115412;28;1055;-57
2023/09/26 00:10:07;;;;;;;;;;;;;;;21.05;67.57;95400.75;5115190;28;969;-57
2023/09/26 00:12:33;;;;;;;;;;;;;;;21.08;67.96;95394.03;5114866;28;2001;-57
2023/09/26 00:15:00;;;;;;;;;;;;;;;21.00;68.50;95398.69;5115027;28;1962;-57
2023/09/26 00:17:26;;;;;;;;;;;;;;;20.88;69.19;95403.16;5115037;28;1023;-57
2023/09/26 00:19:52;;;;;;;;;;;;;;;20.81;69.96;95389.63;5114896;28;1020;-57
2023/09/26 00:22:19;;;;;;;;;;;;;;;20.80;70.30;95393.38;5115020;28;1032;-56
2023/09/26 00:24:46;;;;;;;;;;;;;;;20.73;71.16;95397.19;5114807;27;1032;-57
2023/09/26 00:27:12;;;;;;;;;;;;;;;20.78;70.66;95389.25;5115161;28;1043;-56
2023/09/26 00:29:38;;;;;;;;;;;;;;;20.85;70.71;95379.16;5114833;28;1024;-56
2023/09/26 00:32:04;;;;;;;;;;;;;;;20.78;70.44;95381.91;5114900;28;1991;-57
2023/09/26 00:34:30;;;;;;;;;;;;;;;20.65;71.89;95384.72;5114498;28;1000;-57
2023/09/26 00:36:56;;;;;;;;;;;;;;;20.66;70.76;95389.94;5112697;28;2470;-57
2023/09/26 00:39:22;;;;;;;;;;;;;;;20.61;71.60;95389.75;5094301;28;983;-57
2023/09/26 00:41:48;;;;;;;;;;;;;;;20.52;71.57;95384.75;5094342;28;1041;-57
2023/09/26 00:44:14;;;;;;;;;;;;;;;20.63;72.24;95397.69;5094267;28;980;-57
2023/09/26 00:46:41;;;;;;;;;;;;;;;20.56;71.64;95397.69;5093994;28;1093;-57
2023/09/26 00:49:07;;;;;;;;;;;;;;;20.69;71.88;95393.25;5094229;28;1060;-56
2023/09/26 00:51:34;;;;;;;;;;;;;;;20.72;71.22;95393.66;5094177;28;1043;-56
2023/09/26 00:54:00;;;;;;;;;;;;;;;20.63;72.05;95392.25;5093998;28;1989;-57
2023/09/26 00:56:26;;;;;;;;;;;;;;;20.61;72.03;95399.78;5093640;28;1028;-57
2023/09/26 00:58:53;;;;;;;;;;;;;;;20.58;72.16;95401.03;5103011;28;1369;-57
2023/09/26 01:01:22;;;;;;;;;;;;;;;20.63;72.85;95394.97;5114114;28;1130;-57
2023/09/26 01:03:48;;;;;;;;;;;;;;;20.60;71.77;95398.97;5114280;28;1051;-57
2023/09/26 01:06:14;;;;;;;;;;;;;;;20.57;72.96;95390.38;5114159;28;1128;-57
2023/09/26 01:08:40;;;;;;;;;;;;;;;20.46;72.89;95398.16;5114012;28;1893;-57
2023/09/26 01:11:06;;;;;;;;;;;;;;;20.41;72.92;95394.41;5113999;28;1569;-57
2023/09/26 01:13:32;;;;;;;;;;;;;;;20.42;72.67;95393.38;5113818;28;1985;-57
2023/09/26 01:15:58;;;;;;;;;;;;;;;20.36;73.30;95403.22;5113906;28;1107;-57
2023/09/26 01:18:24;;;;;;;;;;;;;;;20.33;73.97;95403.66;5113851;28;1059;-57
2023/09/26 01:20:50;;;;;;;;;;;;;;;20.28;73.65;95406.19;5114040;28;1063;-57
2023/09/26 01:23:18;;;;;;;;;;;;;;;20.40;72.75;95392.78;5114100;28;1036;-57
2023/09/26 01:25:45;;;;;;;;;;;;;;;20.40;72.52;95388.16;5114123;28;1109;-57
2023/09/26 01:28:16;;;;;;;;;;;;;;;20.32;73.35;95388.41;5114003;28;1062;-56
2023/09/26 01:30:42;;;;;;;;;;;;;;;20.28;73.23;95395.34;5114234;28;1040;-57
2023/09/26 01:33:11;;;;;;;;;;;;;;;20.26;73.35;95397.41;5113513;28;1988;-57
2023/09/26 01:35:37;;;;;;;;;;;;;;;20.20;72.95;95392.84;5113790;28;1028;-57
2023/09/26 01:38:03;;;;;;;;;;;;;;;20.25;73.26;95395.75;5102137;28;2496;-57
2023/09/26 01:40:29;;;;;;;;;;;;;;;20.34;72.60;95391.75;5095462;28;2529;-57
2023/09/26 01:42:55;;;;;;;;;;;;;;;20.34;72.63;95399.06;5113930;28;1044;-57
2023/09/26 01:45:21;;;;;;;;;;;;;;;20.28;72.82;95393.44;5113527;28;1058;-57
2023/09/26 01:47:48;;;;;;;;;;;;;;;20.27;72.68;95394.47;5114221;28;966;-57
2023/09/26 01:50:14;;;;;;;;;;;;;;;20.21;73.37;95397.25;5117772;28;1036;-57
2023/09/26 01:52:41;;;;;;;;;;;;;;;20.24;73.00;95399.50;5118040;28;1898;-57
2023/09/26 01:55:08;;;;;;;;;;;;;;;20.33;72.35;95402.81;5117699;27;1079;-57
2023/09/26 01:57:34;;;;;;;;;;;;;;;20.35;72.37;95406.16;5117619;28;1203;-57
2023/09/26 02:00:00;;;;;;;;;;;;;;;20.38;72.29;95398.41;5117604;28;1156;-57
2023/09/26 02:02:27;;;;;;;;;;;;;;;20.26;72.54;95402.84;5117713;28;1051;-57
2023/09/26 02:04:53;;;;;;;;;;;;;;;20.25;72.54;95399.28;5116365;28;1036;-57
2023/09/26 02:07:19;;;;;;;;;;;;;;;20.27;72.23;95396.38;5117515;28;1051;-57
2023/09/26 02:09:45;;;;;;;;;;;;;;;20.17;72.22;95393.28;5117373;28;1058;-57
2023/09/26 02:12:10;;;;;;;;;;;;;;;20.09;72.56;95400.63;5117544;28;1893;-57
2023/09/26 02:14:36;;;;;;;;;;;;;;;20.09;72.35;95405.22;5117361;28;1114;-57
2023/09/26 02:17:03;;;;;;;;;;;;;;;20.14;72.14;95399.13;5117618;28;984;-57
2023/09/26 02:19:29;;;;;;;;;;;;;;;20.15;72.13;95400.81;5117276;28;1032;-57
2023/09/26 02:21:55;;;;;;;;;;;;;;;20.14;71.70;95388.28;5117273;28;1047;-57
2023/09/26 02:24:21;;;;;;;;;;;;;;;20.02;72.53;95399.81;5117044;28;1020;-57
2023/09/26 02:26:47;;;;;;;;;;;;;;;19.85;73.93;95394.00;5117453;28;972;-57
2023/09/26 02:29:13;;;;;;;;;;;;;;;19.92;73.06;95402.16;5117208;28;1011;-57
2023/09/26 02:31:39;;;;;;;;;;;;;;;19.99;72.93;95400.22;5117020;28;1052;-58
2023/09/26 02:34:05;;;;;;;;;;;;;;;19.97;72.99;95399.59;5117180;28;1914;-57
2023/09/26 02:36:31;;;;;;;;;;;;;;;19.91;73.29;95396.94;5116986;28;1028;-56
2023/09/26 02:38:57;;;;;;;;;;;;;;;19.90;73.80;95396.09;5116856;28;1034;-56
2023/09/26 02:41:24;;;;;;;;;;;;;;;19.81;73.78;95400.91;5116779;28;1087;-56
2023/09/26 02:43:54;;;;;;;;;;;;;;;19.85;73.61;95401.31;5116845;28;1052;-56
2023/09/26 02:46:20;;;;;;;;;;;;;;;19.85;74.11;95401.31;5116748;28;1024;-56
2023/09/26 02:48:46;;;;;;;;;;;;;;;19.73;74.82;95408.44;5116699;28;1103;-56
2023/09/26 02:51:12;;;;;;;;;;;;;;;19.67;74.17;95407.38;5116937;28;1040;-56
2023/09/26 02:53:38;;;;;;;;;;;;;;;19.65;74.22;95404.91;5116713;28;1918;-57
2023/09/26 02:56:08;;;;;;;;;;;;;;;19.61;74.67;95406.34;5116599;28;1035;-56
2023/09/26 02:58:34;;;;;;;;;;;;;;;19.67;74.80;95400.09;5116312;28;1234;-57
2023/09/26 03:01:01;;;;;;;;;;;;;;;19.63;73.86;95398.00;5116731;28;948;-57
2023/09/26 03:05:53;;;;;;;;;;;;;;;19.74;73.33;95408.22;5118116;27;1303892;-57
2023/09/26 03:08:19;;;;;;;;;;;;;;;19.70;74.12;95409.66;5152279;27;1032;-56
2023/09/26 03:10:45;;;;;;;;;;;;;;;19.66;74.15;95411.16;5152300;27;1052;-57
2023/09/26 03:13:11;;;;;;;;;;;;;;;19.55;73.72;95407.19;5133936;27;1060;-57
2023/09/26 03:15:37;;;;;;;;;;;;;;;19.56;74.82;95405.31;5152388;27;999;-57
2023/09/26 03:18:03;;;;;;;;;;;;;;;19.47;74.20;95402.81;5152556;27;1130;-56
2023/09/26 03:20:29;;;;;;;;;;;;;;;19.35;75.06;95407.22;5152384;27;1060;-56
2023/09/26 03:22:55;;;;;;;;;;;;;;;19.35;74.55;95411.78;5152017;27;1032;-56
2023/09/26 03:25:21;;;;;;;;;;;;;;;19.27;74.69;95415.56;5151905;27;1990;-56
2023/09/26 03:27:47;;;;;;;;;;;;;;;19.35;74.80;95404.50;5152052;27;1087;-56
2023/09/26 03:30:16;;;;;;;;;;;;;;;19.40;73.32;95406.59;5150613;27;2510;-56
2023/09/26 03:32:42;;;;;;;;;;;;;;;19.42;72.85;95413.44;5152012;27;1039;-56
2023/09/26 03:35:09;;;;;;;;;;;;;;;19.35;72.18;95411.78;5150456;27;2605;-56
2023/09/26 03:37:36;;;;;;;;;;;;;;;19.31;72.10;95403.25;5152210;27;966;-56
2023/09/26 03:40:03;;;;;;;;;;;;;;;19.29;72.30;95406.19;5152024;27;970;-56
2023/09/26 03:42:29;;;;;;;;;;;;;;;19.35;73.35;95403.66;5151936;27;1047;-56
2023/09/26 03:44:55;;;;;;;;;;;;;;;19.53;71.36;95416.59;5151584;27;1921;-56
2023/09/26 03:47:21;;;;;;;;;;;;;;;19.47;71.17;95413.66;5151737;27;992;-55
2023/09/26 03:49:51;;;;;;;;;;;;;;;19.32;71.17;95410.34;5151563;27;1044;-56
2023/09/26 03:52:17;;;;;;;;;;;;;;;19.24;71.06;95410.56;5150100;27;2615;-56
2023/09/26 03:54:43;;;;;;;;;;;;;;;19.18;70.85;95411.38;5151786;27;1024;-56
2023/09/26 03:57:09;;;;;;;;;;;;;;;19.09;71.50;95413.47;5151434;27;1028;-56
2023/09/26 03:59:35;;;;;;;;;;;;;;;19.07;71.67;95419.09;5151153;27;1254;-56
2023/09/26 04:02:01;;;;;;;;;;;;;;;18.96;71.80;95419.72;5151470;27;969;-56
2023/09/26 04:04:28;;;;;;;;;;;;;;;18.91;71.80;95420.34;5151053;27;1909;-57
2023/09/26 04:06:54;;;;;;;;;;;;;;;18.86;71.81;95420.13;5151278;27;1969;-57
2023/09/26 04:09:20;;;;;;;;;;;;;;;18.95;71.49;95425.34;5151120;27;1110;-57
2023/09/26 04:11:47;;;;;;;;;;;;;;;18.91;71.53;95414.94;5132684;27;1274;-57
2023/09/26 04:14:13;;;;;;;;;;;;;;;18.91;70.99;95417.63;5151413;27;1031;-57
2023/09/26 04:16:39;;;;;;;;;;;;;;;18.86;70.82;95409.28;5140524;27;949;-57
2023/09/26 04:19:05;;;;;;;;;;;;;;;18.92;69.46;95407.63;5137379;27;1019;-57
2023/09/26 04:21:31;;;;;;;;;;;;;;;18.98;69.27;95417.63;5137053;27;944;-57
2023/09/26 04:23:59;;;;;;;;;;;;;;;19.03;69.41;95415.13;5137405;27;1917;-57
2023/09/26 04:26:25;;;;;;;;;;;;;;;19.03;68.87;95420.56;5137292;27;1197;-57
2023/09/26 04:28:51;;;;;;;;;;;;;;;19.06;68.62;95425.53;5137342;27;972;-57
2023/09/26 04:31:18;;;;;;;;;;;;;;;19.10;67.62;95421.41;5137238;27;1047;-57
2023/09/26 04:33:44;;;;;;;;;;;;;;;19.04;68.08;95427.63;5136914;27;1095;-57
2023/09/26 04:36:10;;;;;;;;;;;;;;;18.95;68.29;95422.63;5136761;27;972;-57
2023/09/26 04:38:36;;;;;;;;;;;;;;;18.94;68.01;95431.81;5137068;27;1049;-57
2023/09/26 04:41:03;;;;;;;;;;;;;;;18.87;69.08;95435.31;5136960;27;1091;-57
2023/09/26 04:43:30;;;;;;;;;;;;;;;18.99;68.17;95437.41;5136867;27;1987;-58
2023/09/26 04:45:56;;;;;;;;;;;;;;;19.12;67.26;95437.44;5136983;27;1010;-57
2023/09/26 04:48:22;;;;;;;;;;;;;;;19.23;65.78;95444.13;5136930;27;1044;-57
2023/09/26 04:50:48;;;;;;;;;;;;;;;19.22;63.72;95442.47;5136484;27;1072;-57
2023/09/26 04:53:14;;;;;;;;;;;;;;;19.26;65.11;95436.41;5136672;27;973;-57
2023/09/26 04:55:41;;;;;;;;;;;;;;;19.26;63.42;95449.97;5136667;27;1041;-57
2023/09/26 04:58:07;;;;;;;;;;;;;;;19.30;63.79;95453.09;5133752;27;1161;-57
2023/09/26 05:00:33;;;;;;;;;;;;;;;19.20;63.65;95453.50;5115758;28;1064;-57
2023/09/26 05:02:59;;;;;;;;;;;;;;;19.17;63.08;95463.94;5115840;28;1002;-57
2023/09/26 05:05:25;;;;;;;;;;;;;;;19.11;64.06;95462.88;5115360;28;1909;-57
2023/09/26 05:07:51;;;;;;;;;;;;;;;19.29;63.03;95460.41;5115978;28;1016;-57
2023/09/26 05:10:17;;;;;;;;;;;;;;;19.34;61.45;95465.19;5115557;28;1029;-57
2023/09/26 05:12:43;;;;;;;;;;;;;;;19.39;62.17;95461.84;5097828;28;965;-57
2023/09/26 05:15:12;;;;;;;;;;;;;;;19.45;61.49;95458.31;5115564;28;1072;-57
2023/09/26 05:17:57;;;;;;;;;;;;;;;19.57;61.15;95459.34;5115515;28;1011;-57
2023/09/26 05:20:24;;;;;;;;;;;;;;;19.63;60.20;95466.63;5115622;28;968;-57
2023/09/26 05:22:50;;;;;;;;;;;;;;;19.59;62.10;95468.09;5115731;28;965;-57
2023/09/26 05:25:17;;;;;;;;;;;;;;;19.75;59.92;95476.88;5115231;28;1906;-57
2023/09/26 05:27:43;;;;;;;;;;;;;;;19.85;60.38;95471.88;5114437;28;1036;-57
2023/09/26 05:30:11;;;;;;;;;;;;;;;19.97;58.96;95472.06;5115589;28;972;-57
2023/09/26 05:32:38;;;;;;;;;;;;;;;20.08;59.04;95472.22;5115160;28;1158;-57
2023/09/26 05:35:06;;;;;;;;;;;;;;;20.15;59.15;95476.81;5115404;28;957;-57
2023/09/26 05:37:32;;;;;;;;;;;;;;;20.31;59.38;95475.50;5115374;28;1047;-57
2023/09/26 05:39:59;;;;;;;;;;;;;;;20.31;58.83;95484.47;5115181;28;945;-57
2023/09/26 05:42:25;;;;;;;;;;;;;;;20.53;58.14;95479.63;5115227;28;988;-57
2023/09/26 05:44:51;;;;;;;;;;;;;;;20.82;56.35;95480.13;5115190;28;1914;-57
2023/09/26 05:47:17;;;;;;;;;;;;;;;21.71;53.87;95483.72;5114828;28;1043;-57
2023/09/26 05:49:43;;;;;;;;;;;;;;;22.64;51.29;95483.84;5115175;28;1041;-57
2023/09/26 05:52:09;;;;;;;;;;;;;;;23.26;51.35;95476.31;5114822;28;1028;-57
2023/09/26 05:54:35;;;;;;;;;;;;;;;24.60;46.73;95485.78;5114880;28;983;-57
2023/09/26 05:57:03;;;;;;;;;;;;;;;25.12;44.82;95493.13;5114765;28;1965;-57
2023/09/26 05:59:29;;;;;;;;;;;;;;;24.84;45.50;95496.69;5129118;27;1157;-57
2023/09/26 06:01:55;;;;;;;;;;;;;;;23.83;48.75;95472.28;5135237;27;1063;-56
2023/09/26 06:04:21;;;;;;;;;;;;;;;23.42;48.76;95471.25;5135088;27;1897;-58
2023/09/26 06:06:47;;;;;;;;;;;;;;;23.16;48.80;95485.06;5135308;27;1044;-57
2023/09/26 06:09:14;;;;;;;;;;;;;;;22.88;49.75;95474.72;5135121;27;1202;-57
2023/09/26 06:11:40;;;;;;;;;;;;;;;22.95;49.37;95472.72;5135294;27;1011;-57
2023/09/26 06:14:06;;;;;;;;;;;;;;;22.85;49.66;95471.63;5135276;27;1037;-57
2023/09/26 06:16:32;;;;;;;;;;;;;;;22.71;49.48;95469.06;5134742;27;1040;-57
2023/09/26 06:18:58;;;;;;;;;;;;;;;22.64;50.58;95462.88;5134909;27;1024;-57
2023/09/26 06:21:25;;;;;;;;;;;;;;;22.71;50.12;95466.34;5135121;27;1052;-57
2023/09/26 06:23:51;;;;;;;;;;;;;;;22.81;49.80;95463.06;5134872;27;1910;-57
2023/09/26 06:26:18;;;;;;;;;;;;;;;22.92;48.64;95456.84;5134772;27;968;-57
2023/09/26 06:28:44;;;;;;;;;;;;;;;22.95;48.72;95458.25;5135039;27;1169;-57
2023/09/26 06:31:10;;;;;;;;;;;;;;;23.21;48.41;95458.97;5116529;27;1040;-57
2023/09/26 06:33:36;;;;;;;;;;;;;;;23.21;49.34;95454.34;5134604;27;1028;-57
2023/09/26 06:36:21;;;;;;;;;;;;;;;23.22;49.22;95452.44;5134643;27;1028;-57
2023/09/26 06:38:47;;;;;;;;;;;;;;;23.46;48.11;95451.44;5134420;27;1040;-55
2023/09/26 06:41:13;;;;;;;;;;;;;;;23.71;46.95;95464.03;5134509;27;972;-56
2023/09/26 06:43:39;;;;;;;;;;;;;;;23.92;46.32;95465.38;5134078;27;2373;-55
2023/09/26 06:46:06;;;;;;;;;;;;;;;24.15;46.00;95461.84;5133611;27;2783;-55
2023/09/26 06:48:34;;;;;;;;;;;;;;;24.15;46.86;95461.84;5132950;27;2825;-55
2023/09/26 06:51:01;;;;;;;;;;;;;;;24.25;45.97;95459.31;5116377;27;1070;-55
2023/09/26 06:53:27;;;;;;;;;;;;;;;24.24;46.05;95465.84;5134386;27;972;-55
2023/09/26 06:56:00;;;;;;;;;;;;;;;24.35;44.47;95455.97;5134913;27;995;-55
2023/09/26 06:58:27;;;;;;;;;;;;;;;24.36;44.90;95455.75;5134406;27;1157;-55
2023/09/26 07:00:53;;;;;;;;;;;;;;;24.38;44.96;95460.13;5134351;27;1099;-55
2023/09/26 07:03:19;;;;;;;;;;;;;;;24.45;46.55;95455.38;5134541;28;1134;-56
2023/09/26 07:05:45;;;;;;;;;;;;;;;24.52;44.40;95456.09;5134161;28;1898;-56
2023/09/26 07:08:12;;;;;;;;;;;;;;;24.53;45.13;95461.34;5134264;28;963;-56
2023/09/26 07:10:38;;;;;;;;;;;;;;;24.57;45.48;95463.56;5134399;28;1026;-56
2023/09/26 07:13:04;;;;;;;;;;;;;;;24.70;43.47;95471.50;5134489;28;897;-56
2023/09/26 07:15:31;;;;;;;;;;;;;;;24.72;45.35;95466.63;5131342;28;2544;-55
2023/09/26 07:17:59;;;;;;;;;;;;;;;24.98;44.16;95469.88;5113650;28;1186;-56
2023/09/26 07:20:25;;;;;;;;;;;;;;;25.21;43.59;95468.91;5113801;28;1015;-56
2023/09/26 07:22:51;;;;;;;;;;;;;;;25.32;44.27;95465.31;5115657;28;2873;-55
2023/09/26 07:25:17;;;;;;;;;;;;;;;25.08;43.15;95470.03;5113641;28;1910;-56
2023/09/26 07:27:43;;;;;;;;;;;;;;;25.10;43.24;95471.47;5113804;28;1032;-57
2023/09/26 07:30:09;;;;;;;;;;;;;;;25.26;45.65;95471.78;5113339;28;982;-57
2023/09/26 07:32:35;;;;;;;;;;;;;;;25.46;43.82;95474.91;5114553;28;2505;-57
2023/09/26 07:35:02;;;;;;;;;;;;;;;25.51;43.81;95474.97;5113685;28;1052;-57
2023/09/26 07:37:28;;;;;;;;;;;;;;;25.29;43.19;95474.88;5113414;28;1033;-57
2023/09/26 07:39:54;;;;;;;;;;;;;;;25.50;43.97;95472.50;5112517;28;1036;-57
2023/09/26 07:42:20;;;;;;;;;;;;;;;25.68;42.78;95477.72;5114906;28;2515;-57
2023/09/26 07:44:46;;;;;;;;;;;;;;;25.70;40.24;95477.47;5113584;28;1918;-57
2023/09/26 07:47:12;;;;;;;;;;;;;;;25.48;42.05;95469.19;5113223;28;1032;-57
2023/09/26 07:49:40;;;;;;;;;;;;;;;25.73;42.41;95476.16;5113264;28;976;-56
2023/09/26 07:52:06;;;;;;;;;;;;;;;25.82;40.97;95469.16;5116540;28;956;-57
2023/09/26 07:54:32;;;;;;;;;;;;;;;25.71;41.83;95466.28;5117359;28;969;-57
2023/09/26 07:56:58;;;;;;;;;;;;;;;25.91;40.50;95459.47;5117345;28;1023;-57
2023/09/26 07:59:24;;;;;;;;;;;;;;;25.92;40.69;95463.09;5131087;27;1157;-57
2023/09/26 08:01:50;;;;;;;;;;;;;;;25.89;40.70;95456.16;5137842;27;1028;-58
2023/09/26 08:04:16;;;;;;;;;;;;;;;25.87;39.88;95464.59;5137687;27;1996;-57
2023/09/26 08:06:42;;;;;;;;;;;;;;;26.00;41.19;95470.88;5136282;27;2722;-58
2023/09/26 08:09:10;;;;;;;;;;;;;;;25.91;38.95;95473.16;5137430;27;1040;-58
2023/09/26 08:11:37;;;;;;;;;;;;;;;25.92;39.67;95463.09;5137637;27;917;-58
2023/09/26 08:14:03;;;;;;;;;;;;;;;25.92;39.32;95472.13;5137374;27;1099;-58
2023/09/26 08:16:30;;;;;;;;;;;;;;;26.03;39.74;95471.19;5137179;27;1126;-57
2023/09/26 08:18:56;;;;;;;;;;;;;;;26.00;40.73;95462.66;5137424;27;969;-58
2023/09/26 08:21:24;;;;;;;;;;;;;;;26.07;39.31;95475.09;5137425;27;1003;-58
2023/09/26 08:23:50;;;;;;;;;;;;;;;26.30;40.59;95471.31;5137088;27;1995;-57
2023/09/26 08:26:16;;;;;;;;;;;;;;;26.51;40.17;95474.34;5135740;27;2427;-57
2023/09/26 08:28:42;;;;;;;;;;;;;;;26.53;40.37;95465.88;5137281;27;981;-58
2023/09/26 08:31:13;;;;;;;;;;;;;;;26.70;39.02;95463.09;5137202;27;1021;-58
2023/09/26 08:33:39;;;;;;;;;;;;;;;26.81;39.45;95462.16;5136968;27;1079;-58
2023/09/26 08:36:18;;;;;;;;;;;;;;;26.95;39.19;95466.13;5137218;27;999;-58
2023/09/26 08:38:45;;;;;;;;;;;;;;;27.00;38.12;95470.88;5132380;27;2506;-58
2023/09/26 08:41:11;;;;;;;;;;;;;;;26.86;38.33;95462.19;5116259;28;1131;-58
2023/09/26 08:43:37;;;;;;;;;;;;;;;26.92;37.35;95466.66;5116334;28;1909;-59
2023/09/26 08:46:05;;;;;;;;;;;;;;;26.77;39.06;95460.97;5116258;28;973;-58
2023/09/26 08:48:31;;;;;;;;;;;;;;;26.66;38.50;95462.78;5116062;28;1095;-57
2023/09/26 08:50:57;;;;;;;;;;;;;;;26.49;38.09;95460.06;5130949;27;2479;-57
2023/09/26 08:53:23;;;;;;;;;;;;;;;26.45;39.52;95454.25;5136480;27;977;-58
2023/09/26 08:55:49;;;;;;;;;;;;;;;26.54;40.29;95451.91;5136926;27;962;-57
2023/09/26 08:58:16;;;;;;;;;;;;;;;26.62;38.77;95448.75;5136390;27;1875;-57
2023/09/26 09:00:42;;;;;;;;;;;;;;;26.74;38.14;95453.28;5136823;27;1043;-57
2023/09/26 09:03:08;;;;;;;;;;;;;;;26.87;37.66;95452.88;5136341;27;1247;-57
2023/09/26 09:05:34;;;;;;;;;;;;;;;26.99;37.50;95450.81;5136109;27;1988;-57
2023/09/26 09:08:00;;;;;;;;;;;;;;;26.95;38.91;95452.41;5136322;27;1040;-57
2023/09/26 09:10:26;;;;;;;;;;;;;;;26.92;38.79;95450.22;5136392;27;1028;-57
2023/09/26 09:13:05;;;;;;;;;;;;;;;26.92;38.79;95447.47;5135832;27;2552;-56
2023/09/26 09:15:32;;;;;;;;;;;;;;;26.98;37.96;95443.69;5116116;28;964;-57
2023/09/26 09:17:58;;;;;;;;;;;;;;;26.84;38.67;95439.66;5115571;28;1012;-57
2023/09/26 09:20:34;;;;;;;;;;;;;;;26.90;38.91;95435.91;5115389;28;1114;-57
2023/09/26 09:23:06;;;;;;;;;;;;;;;26.60;39.47;95428.97;5115759;28;981;-56
2023/09/26 09:25:37;;;;;;;;;;;;;;;26.88;39.74;95432.56;5115246;28;1902;-57
2023/09/26 09:28:04;;;;;;;;;;;;;;;27.01;39.62;95425.88;5115467;28;969;-56
2023/09/26 09:30:51;;;;;;;;;;;;;;;27.04;38.73;95437.16;5117034;27;2407;-58
2023/09/26 09:33:17;;;;;;;;;;;;;;;27.02;38.74;95439.34;5115125;28;1431;-57
2023/09/26 09:35:43;;;;;;;;;;;;;;;26.62;37.52;95440.53;5115373;28;1033;-57
2023/09/26 09:38:12;;;;;;;;;;;;;;;26.68;39.19;95434.00;5115328;28;1031;-57
2023/09/26 09:40:38;;;;;;;;;;;;;;;26.81;38.98;95432.78;5115088;28;1076;-57
2023/09/26 09:43:04;;;;;;;;;;;;;;;26.83;39.34;95433.38;5115113;28;1050;-57
2023/09/26 09:45:33;;;;;;;;;;;;;;;26.74;38.76;95432.16;5114829;28;1987;-57
2023/09/26 09:48:01;;;;;;;;;;;;;;;26.80;36.88;95442.09;5115177;28;1024;-57
2023/09/26 09:50:28;;;;;;;;;;;;;;;26.67;36.88;95437.00;5115021;28;968;-57
2023/09/26 09:52:56;;;;;;;;;;;;;;;26.77;38.12;95428.06;5114868;28;1174;-56
2023/09/26 09:55:38;;;;;;;;;;;;;;;26.84;38.15;95434.19;5115005;28;1035;-58
2023/09/26 09:58:09;;;;;;;;;;;;;;;26.75;35.40;95416.53;5117178;27;1216;-59
2023/09/26 10:00:36;;;;;;;;;;;;;;;26.67;35.03;95428.78;5135527;27;960;-59
2023/09/26 10:03:03;;;;;;;;;;;;;;;26.52;35.27;95412.94;5134196;27;2512;-59
2023/09/26 10:05:30;;;;;;;;;;;;;;;26.66;36.97;95406.00;5134980;27;1906;-59
2023/09/26 10:07:58;;;;;;;;;;;;;;;26.78;38.15;95410.53;5135137;27;1044;-58
2023/09/26 10:10:25;;;;;;;;;;;;;;;27.03;38.49;95402.59;5134931;27;1028;-58
2023/09/26 10:12:51;;;;;;;;;;;;;;;27.11;38.09;95397.69;5135301;27;997;-58
2023/09/26 10:15:17;;;;;;;;;;;;;;;27.04;37.07;95398.75;5134505;27;1032;-58
2023/09/26 10:17:45;;;;;;;;;;;;;;;27.01;38.23;95404.72;5135135;27;984;-57
2023/09/26 10:20:12;;;;;;;;;;;;;;;27.24;38.14;95402.75;5134819;27;1091;-58
2023/09/26 10:22:41;;;;;;;;;;;;;;;27.18;37.13;95399.13;5134837;27;1033;-57
2023/09/26 10:25:08;;;;;;;;;;;;;;;27.12;38.17;95394.69;5134672;27;1898;-58
2023/09/26 10:27:34;;;;;;;;;;;;;;;27.15;37.97;95405.16;5134907;27;1043;-58
2023/09/26 10:30:00;;;;;;;;;;;;;;;27.18;37.58;95401.06;5135015;27;984;-58
2023/09/26 10:32:29;;;;;;;;;;;;;;;27.07;37.48;95398.22;5134683;27;1028;-58
2023/09/26 10:34:57;;;;;;;;;;;;;;;27.05;38.10;95396.81;5134630;27;1080;-57
2023/09/26 10:37:25;;;;;;;;;;;;;;;26.92;38.81;95383.50;5116287;27;1027;-57
2023/09/26 10:39:51;;;;;;;;;;;;;;;27.05;38.67;95389.44;5133188;27;2484;-57
2023/09/26 10:42:24;;;;;;;;;;;;;;;26.86;37.99;95388.13;5134757;27;1072;-58
2023/09/26 10:44:51;;;;;;;;;;;;;;;27.03;38.25;95386.13;5134726;27;1910;-58
2023/09/26 10:47:17;;;;;;;;;;;;;;;27.02;37.16;95387.19;5134463;27;987;-57
2023/09/26 10:49:43;;;;;;;;;;;;;;;27.02;38.02;95376.22;5134278;27;1055;-57
2023/09/26 10:52:10;;;;;;;;;;;;;;;27.08;38.65;95377.91;5134499;27;1017;-57
2023/09/26 10:54:37;;;;;;;;;;;;;;;27.15;38.00;95380.47;5134376;27;1071;-57
2023/09/26 10:57:04;;;;;;;;;;;;;;;27.18;38.45;95388.16;5134208;27;2484;-57
2023/09/26 10:59:30;;;;;;;;;;;;;;;27.10;38.51;95377.66;5133714;27;2830;-56
2023/09/26 11:01:57;;;;;;;;;;;;;;;27.02;38.20;95386.38;5134319;27;1032;-57
2023/09/26 11:04:25;;;;;;;;;;;;;;;27.01;37.78;95377.28;5134523;28;1922;-60
2023/09/26 11:06:51;;;;;;;;;;;;;;;27.06;38.96;95369.13;5134582;28;921;-58
2023/09/26 11:09:17;;;;;;;;;;;;;;;27.13;39.40;95373.56;5134427;28;1019;-57
2023/09/26 11:11:43;;;;;;;;;;;;;;;26.98;38.53;95371.53;5134216;28;1044;-58
2023/09/26 11:14:09;;;;;;;;;;;;;;;26.96;38.89;95363.56;5134447;28;941;-58
2023/09/26 11:16:35;;;;;;;;;;;;;;;26.99;38.65;95370.44;5134222;28;1024;-57
2023/09/26 11:19:01;;;;;;;;;;;;;;;26.83;37.36;95374.94;5134243;28;979;-58
2023/09/26 11:21:28;;;;;;;;;;;;;;;26.80;38.74;95364.47;5115870;28;1107;-58
2023/09/26 11:23:54;;;;;;;;;;;;;;;26.79;37.89;95365.56;5134058;28;1989;-57
2023/09/26 11:26:20;;;;;;;;;;;;;;;26.74;38.37;95366.34;5136142;27;1040;-57
2023/09/26 11:28:46;;;;;;;;;;;;;;;26.65;39.12;95370.63;5138232;27;988;-57
2023/09/26 11:31:12;;;;;;;;;;;;;;;26.70;38.24;95365.19;5138181;27;1028;-57
2023/09/26 11:33:38;;;;;;;;;;;;;;;26.76;38.49;95366.91;5138215;27;1024;-57
2023/09/26 11:36:06;;;;;;;;;;;;;;;26.79;38.15;95366.41;5138127;27;999;-57
2023/09/26 11:38:34;;;;;;;;;;;;;;;26.81;37.60;95366.16;5138285;27;989;-57
2023/09/26 11:41:00;;;;;;;;;;;;;;;26.79;37.40;95362.84;5138239;27;1039;-57
2023/09/26 11:43:26;;;;;;;;;;;;;;;26.76;37.53;95355.09;5138068;27;1032;-58
2023/09/26 11:46:04;;;;;;;;;;;;;;;26.75;38.10;95361.66;5138042;27;1975;-57
2023/09/26 11:48:31;;;;;;;;;;;;;;;26.67;37.79;95366.56;5138113;27;967;-57
2023/09/26 11:50:57;;;;;;;;;;;;;;;26.67;37.11;95365.69;5137768;27;972;-57
2023/09/26 11:53:25;;;;;;;;;;;;;;;26.63;37.32;95370.03;5137992;27;1031;-58
2023/09/26 11:55:53;;;;;;;;;;;;;;;26.67;37.87;95373.94;5138076;27;999;-58
2023/09/26 11:58:19;;;;;;;;;;;;;;;26.68;38.25;95356.41;5137523;27;1211;-57
2023/09/26 12:00:45;;;;;;;;;;;;;;;26.81;37.71;95345.03;5137639;27;1025;-58
2023/09/26 12:03:11;;;;;;;;;;;;;;;26.90;38.39;95348.13;5137604;27;1040;-57
2023/09/26 12:05:37;;;;;;;;;;;;;;;26.93;37.32;95349.53;5136015;27;2855;-58
2023/09/26 12:08:03;;;;;;;;;;;;;;;26.79;37.02;95349.13;5137840;27;1042;-58
2023/09/26 12:10:29;;;;;;;;;;;;;;;26.52;36.72;95360.84;5136059;27;2578;-57
2023/09/26 12:12:56;;;;;;;;;;;;;;;26.44;37.06;95355.81;5137551;27;954;-57
2023/09/26 12:15:25;;;;;;;;;;;;;;;26.55;37.13;95343.88;5137559;27;1044;-58
2023/09/26 12:17:52;;;;;;;;;;;;;;;26.50;37.34;95349.31;5137398;27;1090;-57
2023/09/26 12:20:22;;;;;;;;;;;;;;;26.53;37.63;95348.78;5137195;27;1027;-58
2023/09/26 12:22:49;;;;;;;;;;;;;;;26.59;37.42;95345.06;5137396;27;1028;-57
2023/09/26 12:25:15;;;;;;;;;;;;;;;26.72;37.29;95340.25;5137216;27;1914;-57
2023/09/26 12:27:41;;;;;;;;;;;;;;;26.62;36.86;95341.81;5137436;27;1034;-58
2023/09/26 12:30:07;;;;;;;;;;;;;;;26.53;37.36;95340.56;5137204;27;970;-58
2023/09/26 12:32:34;;;;;;;;;;;;;;;26.64;38.17;95347.84;5137221;27;1056;-58
2023/09/26 12:35:00;;;;;;;;;;;;;;;26.54;36.74;95355.94;5137201;27;1011;-57
2023/09/26 12:37:26;;;;;;;;;;;;;;;26.39;37.71;95348.38;5136730;27;1014;-58
2023/09/26 12:39:52;;;;;;;;;;;;;;;26.39;37.15;95355.75;5136909;27;1048;-57
2023/09/26 12:42:18;;;;;;;;;;;;;;;26.36;37.66;95350.78;5118780;27;1076;-58
2023/09/26 12:44:44;;;;;;;;;;;;;;;26.25;38.17;95353.38;5118549;27;1913;-58
2023/09/26 12:47:10;;;;;;;;;;;;;;;26.25;38.75;95358.06;5136796;27;954;-57
2023/09/26 12:49:37;;;;;;;;;;;;;;;26.25;37.58;95353.38;5136711;27;1039;-57
2023/09/26 12:52:04;;;;;;;;;;;;;;;26.30;38.18;95350.72;5137002;27;1017;-58
2023/09/26 12:54:30;;;;;;;;;;;;;;;26.36;37.44;95348.88;5136624;27;1114;-58
2023/09/26 12:56:57;;;;;;;;;;;;;;;26.41;37.06;95350.88;5136628;27;1107;-58
2023/09/26 12:59:23;;;;;;;;;;;;;;;26.37;36.96;95355.16;5136307;27;1161;-58